ADDS TAF Board (Experimental) INFO

IDs: Format: Expanded Condensed

Updated at: 0757 UTC 01 Nov 2014

KPDX - Portland Intl Arpt, OR, US

Issued at 0710 UTC 01 Nov 2014
Time0753Z01/08Z01/09Z01/10Z01/11Z01/12Z01/13Z01/14Z01/15Z01/16Z01/17Z01/18Z01/19Z01/20Z
TypeOBSPRVLPRVLPRVLPRVLPRVLPRVLPRVLPRVLPRVLPRVLPRVLPRVLPRVL
VIS10220.50.50.50.50.50.50.5133>6
CIG5552222222488250
CoverOVCBKNBKNOVXOVXOVXOVXOVXOVXOVXOVCBKNBKNBKN
FltCatIFRIFRIFRLIFRLIFRLIFRLIFRLIFRLIFRLIFRLIFRIFRIFRVFR
WX--BRBRFGFGFGFGFGFGFGBRBRBRVCSH
WDir330VRBVRBVRBVRBVRBVRBVRBVRBVRBVRBVRBVRB320
WSpd43333333330333
WGst----------------------------
R03/21
XWnd4VRBVRBVRBVRBVRBVRBVRBVRBVRBVRBVRBVRB3
HWnd1VRBVRBVRBVRBVRBVRBVRBVRBVRBVRBVRBVRB0
R10/28
XWnd2VRBVRBVRBVRBVRBVRBVRBVRBVRBVRBVRBVRB1
HWnd-3VRBVRBVRBVRBVRBVRBVRBVRBVRBVRBVRBVRB-3
Raw TAF
KPDX 010710Z 0107/0206 VRB03KT 2SM BR BKN005
  FM011000 VRB03KT 1/2SM FG VV002
  FM011700 00000KT 1SM BR OVC004
  FM011800 VRB03KT 3SM BR BKN008
  FM012000 32003KT P6SM VCSH SCT040 BKN250


Raw METAR
KPDX 010753Z 33004KT 10SM BKN005 OVC250 08/08 A2986 RMK AO2 SLP111 T00830083 401500083
KPDX 010653Z 30004KT 10SM BCFG BKN005 BKN075 OVC250 08/08 A2986 RMK AO2 SLP111 T00830083
KPDX 010650Z 30003KT 10SM BCFG BKN005 BKN075 OVC250 08/08 A2986 RMK AO2

TAF Board Legend

Hazard VFR MVFR IFR LIFR
Visibility (sm) >5 3≤X≤5 1≤X<3 <1
Ceiling (100 ft) >30 10≤X≤30 5≤X<10 <5
Wind Speed (kt) <10 10≤X<20 20≤X<30 ≥30
Wind Gust (kt) <15 15≤X<25 25≤X<35 ≥35
Weather No Wx Reported VCTS,-TS,-FZRA TS,FZRA +TS,+FZRA


Page loaded:  07:57 UTC  |   12:57 AM Pacific  |   01:57 AM Mountain  |   02:57 AM Central  |   03:57 AM Eastern

 

ADVISORIES

FORECASTS

FORECASTS

OBSERVATIONS

USER TOOLS

ABOUT US